createdAt,value
2018-03-25T00:00:56.174Z,29.12
2018-03-25T00:03:22.826Z,29.42
2018-03-25T00:05:49.465Z,27.83
2018-03-25T00:08:16.101Z,30.27
2018-03-25T00:10:42.744Z,30.85
2018-03-25T00:13:09.382Z,30.40
2018-03-25T00:15:36.039Z,28.33
2018-03-25T00:18:02.755Z,27.52
2018-03-25T00:20:29.405Z,29.73
2018-03-25T00:22:56.037Z,28.67
2018-03-25T00:25:22.667Z,27.30
2018-03-25T00:27:49.317Z,28.35
2018-03-25T00:30:15.961Z,29.52
2018-03-25T00:32:42.687Z,28.27
2018-03-25T00:35:09.333Z,27.75
2018-03-25T00:37:35.972Z,29.00
2018-03-25T00:40:02.617Z,28.52
2018-03-25T00:42:29.248Z,29.05
2018-03-25T00:44:55.893Z,29.60
2018-03-25T00:47:22.620Z,28.23
2018-03-25T00:49:49.369Z,29.63
2018-03-25T00:52:16.007Z,29.25
2018-03-25T00:54:42.776Z,32.75
2018-03-25T00:57:09.451Z,30.67
2018-03-25T00:59:36.128Z,30.48
2018-03-25T01:02:02.812Z,29.48
2018-03-25T01:04:29.509Z,31.30
2018-03-25T01:06:56.150Z,28.52
2018-03-25T01:09:22.884Z,31.20
2018-03-25T01:11:49.529Z,29.67
2018-03-25T01:14:16.276Z,29.87
2018-03-25T01:16:42.916Z,28.33
2018-03-25T01:19:09.545Z,33.30
2018-03-25T01:21:36.184Z,30.23
2018-03-25T01:24:02.832Z,32.50
2018-03-25T01:26:29.468Z,28.67
2018-03-25T01:28:56.206Z,28.45
2018-03-25T01:31:22.855Z,30.65
2018-03-25T01:33:49.489Z,32.33
2018-03-25T01:36:16.129Z,30.00
2018-03-25T01:38:42.757Z,32.45
2018-03-25T01:41:09.509Z,31.40
2018-03-25T01:43:36.140Z,31.42
2018-03-25T01:46:02.764Z,30.20
2018-03-25T01:48:29.403Z,32.08
2018-03-25T01:50:56.055Z,32.30
2018-03-25T01:53:22.696Z,31.05
2018-03-25T01:55:49.322Z,29.77
2018-03-25T01:58:15.969Z,32.38
2018-03-25T02:00:42.612Z,32.53
2018-03-25T02:03:09.248Z,31.20
2018-03-25T02:05:35.869Z,31.12
2018-03-25T02:08:02.529Z,30.90
2018-03-25T02:10:29.172Z,29.92
2018-03-25T02:12:55.839Z,32.97
2018-03-25T02:15:22.557Z,31.50
2018-03-25T02:17:49.297Z,34.15
2018-03-25T02:20:15.924Z,32.28
2018-03-25T02:22:42.682Z,28.52
2018-03-25T02:25:09.426Z,29.30
2018-03-25T02:27:36.066Z,30.00
2018-03-25T02:30:02.812Z,28.27
2018-03-25T02:32:29.462Z,29.20
2018-03-25T02:34:56.184Z,30.50
2018-03-25T02:37:22.916Z,31.12
2018-03-25T02:39:49.659Z,29.83
2018-03-25T02:42:16.292Z,28.95
2018-03-25T02:44:43.040Z,29.23
2018-03-25T02:47:09.665Z,28.92
2018-03-25T02:49:36.321Z,28.80
2018-03-25T02:52:03.063Z,28.10
2018-03-25T02:54:29.804Z,30.27
2018-03-25T02:56:56.447Z,26.60
2018-03-25T02:59:23.091Z,29.63
2018-03-25T03:01:49.725Z,28.60
2018-03-25T03:04:16.460Z,27.98
2018-03-25T03:06:43.091Z,26.92
2018-03-25T03:09:09.728Z,29.77
2018-03-25T03:11:36.352Z,30.45
2018-03-25T03:14:03.021Z,30.52
2018-03-25T03:16:29.652Z,30.00
2018-03-25T03:18:56.293Z,34.28
2018-03-25T03:21:22.943Z,33.30
2018-03-25T03:23:49.602Z,32.83
2018-03-25T03:26:16.317Z,31.80
2018-03-25T03:28:42.963Z,31.10
2018-03-25T03:31:09.610Z,30.67
2018-03-25T03:33:36.232Z,30.83
2018-03-25T03:36:02.981Z,32.20
2018-03-25T03:38:29.621Z,32.58
2018-03-25T03:40:56.364Z,31.77
2018-03-25T03:43:22.988Z,32.42
2018-03-25T03:45:49.623Z,30.23
2018-03-25T03:48:16.253Z,27.67
2018-03-25T03:50:42.900Z,30.15
2018-03-25T03:53:09.533Z,29.33
2018-03-25T03:55:36.173Z,28.95
2018-03-25T03:58:02.828Z,29.05
2018-03-25T04:00:29.467Z,28.30
2018-03-25T04:02:56.213Z,29.73
2018-03-25T04:05:22.844Z,28.58
2018-03-25T04:07:49.478Z,30.02
2018-03-25T04:10:16.233Z,27.92
2018-03-25T04:12:42.855Z,30.00
2018-03-25T04:15:09.494Z,30.40
2018-03-25T04:17:36.250Z,29.17
2018-03-25T04:20:02.893Z,30.67
2018-03-25T04:22:29.528Z,30.52
2018-03-25T04:24:56.295Z,31.70
2018-03-25T04:27:22.932Z,28.55
2018-03-25T04:29:49.560Z,30.05
2018-03-25T04:32:16.205Z,29.63
2018-03-25T04:34:42.929Z,27.75
2018-03-25T04:37:09.572Z,30.80
2018-03-25T04:39:36.300Z,27.90
2018-03-25T04:42:03.054Z,29.90
2018-03-25T04:44:29.688Z,29.63
2018-03-25T04:46:56.333Z,29.30
2018-03-25T04:49:22.969Z,29.87
2018-03-25T04:51:49.620Z,29.02
2018-03-25T04:54:16.253Z,27.73
2018-03-25T04:56:42.945Z,26.70
2018-03-25T04:59:09.679Z,29.10
2018-03-25T05:01:36.306Z,28.87
2018-03-25T05:04:02.941Z,30.50
2018-03-25T05:06:29.645Z,30.08
2018-03-25T05:08:56.284Z,28.25
2018-03-25T05:11:23.016Z,28.62
2018-03-25T05:13:49.666Z,29.55
2018-03-25T05:16:16.296Z,27.20
2018-03-25T05:18:42.928Z,27.77
2018-03-25T05:21:09.589Z,29.58
2018-03-25T05:23:36.232Z,27.58
2018-03-25T05:26:02.865Z,30.23
2018-03-25T05:28:29.594Z,28.40
2018-03-25T05:30:56.224Z,29.90
2018-03-25T05:33:22.865Z,28.55
2018-03-25T05:35:49.520Z,29.75
2018-03-25T05:38:16.256Z,29.35
2018-03-25T05:40:42.906Z,30.23
2018-03-25T05:43:09.555Z,28.08
2018-03-25T05:45:36.180Z,28.15
2018-03-25T05:48:02.826Z,28.73
2018-03-25T05:50:29.448Z,29.33
2018-03-25T05:52:56.192Z,30.85
2018-03-25T05:55:22.824Z,28.38
2018-03-25T05:57:49.459Z,30.02
2018-03-25T06:00:16.100Z,29.80
2018-03-25T06:02:42.752Z,31.45
2018-03-25T06:05:09.396Z,29.73
2018-03-25T06:07:36.037Z,31.10
2018-03-25T06:10:02.764Z,31.85
2018-03-25T06:12:29.408Z,29.08
2018-03-25T06:14:56.044Z,29.40
2018-03-25T06:17:22.714Z,29.58
2018-03-25T06:19:49.365Z,29.87
2018-03-25T06:22:15.990Z,27.85
2018-03-25T06:24:42.708Z,29.85
2018-03-25T06:27:09.340Z,26.77
2018-03-25T06:29:36.092Z,27.27
2018-03-25T06:32:02.725Z,29.27
2018-03-25T06:34:29.464Z,30.62
2018-03-25T06:36:56.108Z,30.15
2018-03-25T06:39:22.752Z,28.38
2018-03-25T06:41:49.493Z,27.85
2018-03-25T06:44:16.126Z,31.37
2018-03-25T06:46:42.766Z,29.05
2018-03-25T06:49:09.417Z,30.83
2018-03-25T06:51:36.066Z,26.70
2018-03-25T06:54:02.687Z,30.15
2018-03-25T06:56:29.328Z,31.00
2018-03-25T06:58:56.073Z,30.70
2018-03-25T07:01:22.805Z,29.25
2018-03-25T07:03:49.553Z,29.77
2018-03-25T07:06:16.290Z,27.65
2018-03-25T07:08:42.964Z,27.70
2018-03-25T07:11:09.673Z,27.17
2018-03-25T07:13:36.414Z,28.27
2018-03-25T07:16:03.157Z,29.02
2018-03-25T07:18:29.780Z,29.55
2018-03-25T07:20:56.524Z,27.20
2018-03-25T07:23:23.163Z,30.35
2018-03-25T07:25:49.802Z,27.87
2018-03-25T07:28:16.443Z,27.55
2018-03-25T07:30:43.089Z,28.87
2018-03-25T07:33:09.833Z,29.12
2018-03-25T07:35:36.459Z,30.40
2018-03-25T07:38:03.208Z,28.98
2018-03-25T07:40:29.828Z,30.25
2018-03-25T07:42:56.469Z,29.83
2018-03-25T07:45:23.128Z,31.55
2018-03-25T07:47:49.764Z,28.58
2018-03-25T07:50:16.413Z,27.87
2018-03-25T07:52:43.054Z,29.50
2018-03-25T07:55:09.685Z,33.90
2018-03-25T07:57:36.323Z,34.30
2018-03-25T08:00:02.949Z,32.08
2018-03-25T08:02:29.627Z,31.12
2018-03-25T08:04:56.257Z,29.37
2018-03-25T08:07:22.896Z,30.50
2018-03-25T08:09:49.524Z,32.38
2018-03-25T08:12:16.183Z,31.48
2018-03-25T08:14:42.895Z,29.10
2018-03-25T08:17:09.539Z,30.30
2018-03-25T08:19:36.176Z,30.25
2018-03-25T08:22:02.806Z,29.90
2018-03-25T08:24:29.448Z,29.77
2018-03-25T08:26:56.082Z,31.37
2018-03-25T08:29:22.836Z,31.08
2018-03-25T08:31:49.469Z,30.62
2018-03-25T08:34:16.107Z,31.77
2018-03-25T08:36:42.734Z,30.80
2018-03-25T08:39:09.403Z,30.65
2018-03-25T08:41:36.041Z,28.40
2018-03-25T08:44:02.774Z,32.95
2018-03-25T08:46:29.463Z,31.70
2018-03-25T08:48:56.152Z,30.83
2018-03-25T08:51:22.817Z,32.55
2018-03-25T08:53:49.461Z,30.45
2018-03-25T08:56:16.100Z,31.95
2018-03-25T08:58:42.745Z,30.23
2018-03-25T09:01:09.457Z,28.33
2018-03-25T09:03:36.204Z,29.80
2018-03-25T09:06:02.839Z,31.00
2018-03-25T09:08:29.486Z,29.42
2018-03-25T09:10:56.126Z,27.45
2018-03-25T09:13:22.756Z,30.35
2018-03-25T09:15:49.452Z,28.38
2018-03-25T09:18:16.071Z,28.90
2018-03-25T09:20:42.772Z,26.73
2018-03-25T09:23:09.397Z,29.58
2018-03-25T09:25:36.045Z,29.80
2018-03-25T09:28:02.710Z,28.95
2018-03-25T09:30:29.424Z,29.75
2018-03-25T09:32:56.068Z,28.12
2018-03-25T09:35:22.810Z,28.02
2018-03-25T09:37:49.445Z,28.38
2018-03-25T09:40:16.190Z,28.42
2018-03-25T09:42:42.825Z,28.35
2018-03-25T09:45:09.476Z,28.45
2018-03-25T09:47:36.105Z,25.67
2018-03-25T09:50:03.740Z,27.35
2018-03-25T09:52:30.365Z,28.05
2018-03-25T09:54:57.053Z,28.27
2018-03-25T09:57:23.685Z,27.75
2018-03-25T09:59:50.313Z,27.00
2018-03-25T10:02:22.833Z,27.85
2018-03-25T10:04:49.559Z,28.25
2018-03-25T10:07:16.204Z,28.00
2018-03-25T10:09:42.833Z,27.48
2018-03-25T10:12:09.476Z,28.65
2018-03-25T10:14:36.109Z,28.08
2018-03-25T10:17:02.832Z,27.10
2018-03-25T10:19:29.482Z,27.73
2018-03-25T10:21:56.126Z,27.95
2018-03-25T10:24:22.756Z,27.55
2018-03-25T10:26:49.449Z,27.05
2018-03-25T10:29:16.141Z,26.50
2018-03-25T10:31:42.872Z,27.02
2018-03-25T10:34:09.501Z,29.20
2018-03-25T10:36:36.132Z,28.12
2018-03-25T10:39:02.760Z,28.25
2018-03-25T10:41:29.440Z,27.80
2018-03-25T10:43:56.069Z,29.55
2018-03-25T10:46:22.729Z,28.58
2018-03-25T10:48:49.425Z,27.80
2018-03-25T10:51:16.101Z,29.05
2018-03-25T10:53:42.758Z,28.23
2018-03-25T10:56:09.391Z,26.40
2018-03-25T10:58:36.046Z,26.55
2018-03-25T11:01:02.705Z,26.85
2018-03-25T11:03:29.357Z,25.60
2018-03-25T11:05:55.980Z,27.67
2018-03-25T11:08:22.630Z,25.83
2018-03-25T11:10:49.308Z,27.37
2018-03-25T11:13:16.049Z,27.25
2018-03-25T11:15:42.793Z,24.63
2018-03-25T11:18:09.532Z,27.13
2018-03-25T11:20:36.156Z,26.27
2018-03-25T11:23:02.805Z,26.08
2018-03-25T11:25:29.440Z,24.90
2018-03-25T11:27:56.198Z,26.05
2018-03-25T11:30:22.825Z,26.00
2018-03-25T11:32:49.571Z,27.23
2018-03-25T11:35:16.318Z,24.15
2018-03-25T11:37:42.949Z,26.00
2018-03-25T11:40:09.637Z,21.92
2018-03-25T11:42:36.233Z,30.88
2018-03-25T11:45:02.871Z,23.75
2018-03-25T11:47:29.649Z,25.08
2018-03-25T11:49:56.358Z,26.80
2018-03-25T11:52:23.093Z,24.73
2018-03-25T11:54:49.738Z,23.38
2018-03-25T11:57:16.471Z,23.95
2018-03-25T11:59:43.117Z,22.15
2018-03-25T12:02:09.750Z,26.00
2018-03-25T12:04:36.443Z,23.25
2018-03-25T12:07:03.033Z,28.97
2018-03-25T12:09:29.676Z,22.25
2018-03-25T12:11:56.413Z,21.95
2018-03-25T12:14:23.048Z,23.40
2018-03-25T12:16:49.672Z,21.65
2018-03-25T12:19:16.438Z,23.77
2018-03-25T12:21:43.060Z,22.60
2018-03-25T12:24:09.709Z,23.55
2018-03-25T12:26:36.440Z,24.90
2018-03-25T12:29:03.079Z,30.07
2018-03-25T12:31:29.824Z,26.53
2018-03-25T12:33:56.453Z,28.00
2018-03-25T12:36:23.221Z,24.92
2018-03-25T12:38:49.853Z,26.05
2018-03-25T12:41:16.493Z,26.75
2018-03-25T12:43:43.233Z,24.37
2018-03-25T12:46:09.964Z,25.27
2018-03-25T12:48:36.588Z,25.35
2018-03-25T12:51:03.228Z,27.17
2018-03-25T12:53:29.893Z,23.55
2018-03-25T12:55:56.524Z,22.80
2018-03-25T12:58:23.157Z,23.38
2018-03-25T13:00:49.810Z,22.00
2018-03-25T13:03:16.445Z,21.40
2018-03-25T13:05:43.183Z,23.62
2018-03-25T13:08:09.829Z,22.35
2018-03-25T13:10:36.597Z,26.80
2018-03-25T13:13:03.308Z,21.83
2018-03-25T13:15:30.305Z,22.90
2018-03-25T13:17:57.053Z,24.75
2018-03-25T13:20:23.680Z,28.45
2018-03-25T13:22:50.324Z,22.37
2018-03-25T13:25:16.962Z,23.52
2018-03-25T13:27:43.600Z,23.60
2018-03-25T13:30:10.297Z,23.45
2018-03-25T13:32:37.060Z,22.48
2018-03-25T13:35:03.772Z,30.75
2018-03-25T13:37:30.421Z,24.73
2018-03-25T13:39:57.053Z,23.00
2018-03-25T13:42:23.701Z,24.73
2018-03-25T13:44:50.336Z,23.45
2018-03-25T13:47:16.988Z,22.05
2018-03-25T13:49:43.627Z,21.27
2018-03-25T13:52:10.264Z,25.30
2018-03-25T13:54:36.989Z,35.50
2018-03-25T13:57:03.729Z,21.97
2018-03-25T13:59:30.363Z,22.20
2018-03-25T14:01:57.008Z,28.17
2018-03-25T14:04:23.653Z,23.13
2018-03-25T14:06:50.284Z,22.97
2018-03-25T14:09:16.921Z,24.03
2018-03-25T14:11:43.552Z,23.70
2018-03-25T14:14:10.192Z,22.87
2018-03-25T14:16:36.868Z,23.20
2018-03-25T14:19:03.580Z,22.03
2018-03-25T14:21:30.208Z,21.20
2018-03-25T14:23:56.960Z,20.83
2018-03-25T14:26:23.584Z,19.90
2018-03-25T14:28:50.249Z,20.90
2018-03-25T14:31:16.881Z,23.07
2018-03-25T14:33:43.616Z,22.60
2018-03-25T14:36:10.246Z,22.30
2018-03-25T14:38:36.888Z,22.27
2018-03-25T14:41:03.538Z,20.60
2018-03-25T14:43:30.177Z,21.50
2018-03-25T14:45:56.955Z,20.50
2018-03-25T14:48:23.597Z,20.70
2018-03-25T14:50:50.359Z,20.53
2018-03-25T14:53:16.985Z,20.70
2018-03-25T14:55:43.690Z,21.07
2018-03-25T14:58:10.429Z,19.90
2018-03-25T15:00:37.077Z,21.43
2018-03-25T15:03:03.715Z,18.93
2018-03-25T15:05:30.446Z,23.10
2018-03-25T15:07:57.172Z,20.90
2018-03-25T15:10:23.826Z,20.47
2018-03-25T15:12:50.451Z,20.50
2018-03-25T15:15:17.093Z,19.60
2018-03-25T15:17:43.724Z,19.37
2018-03-25T15:20:10.368Z,21.00
2018-03-25T15:22:36.995Z,22.50
2018-03-25T15:25:03.660Z,18.93
2018-03-25T15:27:30.398Z,22.17
2018-03-25T15:29:57.036Z,20.40
2018-03-25T15:32:23.659Z,19.20
2018-03-25T15:34:50.365Z,22.47
2018-03-25T15:37:17.062Z,21.27
2018-03-25T15:39:43.710Z,20.63
2018-03-25T15:42:10.346Z,20.27
2018-03-25T15:44:36.982Z,23.80
2018-03-25T15:47:03.625Z,20.50
2018-03-25T15:49:30.364Z,19.87
2018-03-25T15:51:57.087Z,19.15
2018-03-25T15:54:23.720Z,21.25
2018-03-25T15:56:50.364Z,21.37
2018-03-25T15:59:17.008Z,19.12
2018-03-25T16:01:43.753Z,20.33
2018-03-25T16:04:10.498Z,20.75
2018-03-25T16:06:37.141Z,19.90
2018-03-25T16:09:03.778Z,19.80
2018-03-25T16:11:30.513Z,20.33
2018-03-25T16:13:57.149Z,21.65
2018-03-25T16:16:23.788Z,21.10
2018-03-25T16:18:50.437Z,22.13
2018-03-25T16:21:17.181Z,22.40
2018-03-25T16:23:43.819Z,22.02
2018-03-25T16:26:10.466Z,20.55
2018-03-25T16:28:37.196Z,21.55
2018-03-25T16:31:03.833Z,20.85
2018-03-25T16:33:30.479Z,20.92
2018-03-25T16:35:57.118Z,21.65
2018-03-25T16:38:23.755Z,23.15
2018-03-25T16:40:50.394Z,20.50
2018-03-25T16:43:17.027Z,21.17
2018-03-25T16:45:43.768Z,19.65
2018-03-25T16:48:10.414Z,19.70
2018-03-25T16:50:37.150Z,20.88
2018-03-25T16:53:03.792Z,22.60
2018-03-25T16:55:30.421Z,23.40
2018-03-25T16:57:57.066Z,23.95
2018-03-25T17:00:23.809Z,22.13
2018-03-25T17:02:50.467Z,22.75
2018-03-25T17:05:17.189Z,23.45
2018-03-25T17:07:43.834Z,23.95
2018-03-25T17:10:10.466Z,23.52
2018-03-25T17:12:37.207Z,25.58
2018-03-25T17:15:03.944Z,25.10
2018-03-25T17:17:30.716Z,23.30
2018-03-25T17:19:57.355Z,24.15
2018-03-25T17:22:24.072Z,23.87
2018-03-25T17:24:50.712Z,22.20
2018-03-25T17:27:17.346Z,23.33
2018-03-25T17:29:44.095Z,25.00
2018-03-25T17:32:10.728Z,23.15
2018-03-25T17:34:37.478Z,24.37
2018-03-25T17:37:04.111Z,24.08
2018-03-25T17:39:30.744Z,25.37
2018-03-25T17:41:57.425Z,23.80
2018-03-25T17:44:24.019Z,24.73
2018-03-25T17:46:50.644Z,25.37
2018-03-25T17:49:17.303Z,23.83
2018-03-25T17:51:44.048Z,24.20
2018-03-25T17:54:10.689Z,26.65
2018-03-25T17:56:37.325Z,28.45
2018-03-25T17:59:03.981Z,33.92
2018-03-25T18:01:30.733Z,25.08
2018-03-25T18:03:57.379Z,24.70
2018-03-25T18:06:24.099Z,24.15
2018-03-25T18:08:50.729Z,23.45
2018-03-25T18:11:17.369Z,25.60
2018-03-25T18:13:43.997Z,24.08
2018-03-25T18:16:10.667Z,25.35
2018-03-25T18:18:37.297Z,24.98
2018-03-25T18:21:04.022Z,22.27
2018-03-25T18:23:30.660Z,24.25
2018-03-25T18:25:57.374Z,23.77
2018-03-25T18:28:23.963Z,26.58
2018-03-25T18:30:50.708Z,22.30
2018-03-25T18:33:17.475Z,23.77
2018-03-25T18:35:44.162Z,22.23
2018-03-25T18:38:10.800Z,21.92
2018-03-25T18:40:37.547Z,22.25
2018-03-25T18:43:04.179Z,22.42
2018-03-25T18:45:30.822Z,24.30
2018-03-25T18:47:57.502Z,23.27
2018-03-25T18:50:24.135Z,24.83
2018-03-25T18:52:50.756Z,32.80
2018-03-25T18:55:17.439Z,26.70
2018-03-25T18:57:44.120Z,24.27
2018-03-25T19:00:10.754Z,27.70
2018-03-25T19:02:37.401Z,26.90
2018-03-25T19:05:04.038Z,23.25
2018-03-25T19:07:30.675Z,26.52
2018-03-25T19:09:57.352Z,23.45
2018-03-25T19:12:23.980Z,21.85
2018-03-25T19:14:50.697Z,23.85
2018-03-25T19:17:17.437Z,25.55
2018-03-25T19:19:44.105Z,28.10
2018-03-25T19:22:10.849Z,48.28
2018-03-25T19:24:37.565Z,41.83
2018-03-25T19:27:04.304Z,35.88
2018-03-25T19:29:30.927Z,35.03
2018-03-25T19:31:57.694Z,34.10
2018-03-25T19:34:24.433Z,34.53
2018-03-25T19:36:51.166Z,34.10
2018-03-25T19:39:17.934Z,43.10
2018-03-25T19:41:44.672Z,30.42
2018-03-25T19:44:11.305Z,30.37
2018-03-25T19:46:38.033Z,31.10
2018-03-25T19:49:04.723Z,29.00
2018-03-25T19:51:31.421Z,26.87
2018-03-25T19:53:58.067Z,26.40
2018-03-25T19:56:24.788Z,25.20
2018-03-25T19:58:51.438Z,26.02
2018-03-25T20:01:18.094Z,26.73
2018-03-25T20:03:44.778Z,27.80
2018-03-25T20:06:11.374Z,25.85
2018-03-25T20:08:38.117Z,24.80
2018-03-25T20:11:04.835Z,27.77
2018-03-25T20:13:31.480Z,28.38
2018-03-25T20:15:58.116Z,25.75
2018-03-25T20:18:24.839Z,24.87
2018-03-25T20:20:51.484Z,26.15
2018-03-25T20:23:18.137Z,25.15
2018-03-25T20:25:44.765Z,24.92
2018-03-25T20:28:11.509Z,24.10
2018-03-25T20:30:38.137Z,23.92
2018-03-25T20:33:04.880Z,25.05
2018-03-25T20:35:31.534Z,25.50
2018-03-25T20:37:58.174Z,27.73
2018-03-25T20:40:24.814Z,32.30
2018-03-25T20:42:51.451Z,29.67
2018-03-25T20:45:18.194Z,23.15
2018-03-25T20:47:44.825Z,24.15
2018-03-25T20:50:11.568Z,25.60
2018-03-25T20:52:38.200Z,25.45
2018-03-25T20:55:04.855Z,28.15
2018-03-25T20:57:31.498Z,27.48
2018-03-25T20:59:58.148Z,27.90
2018-03-25T21:02:24.832Z,25.92
2018-03-25T21:04:51.530Z,28.95
2018-03-25T21:07:18.171Z,30.92
2018-03-25T21:09:44.845Z,30.17
2018-03-25T21:12:11.480Z,28.10
2018-03-25T21:14:38.126Z,30.33
2018-03-25T21:17:04.763Z,29.77
2018-03-25T21:19:31.407Z,30.17
2018-03-25T21:21:58.082Z,32.15
2018-03-25T21:24:24.704Z,31.12
2018-03-25T21:26:51.353Z,35.65
2018-03-25T21:29:18.045Z,32.35
2018-03-25T21:31:44.684Z,33.53
2018-03-25T21:34:11.318Z,35.15
2018-03-25T21:36:37.956Z,34.22
2018-03-25T21:39:04.590Z,33.08
2018-03-25T21:41:31.237Z,33.78
2018-03-25T21:43:57.933Z,33.78
2018-03-25T21:46:24.599Z,34.78
2018-03-25T21:48:51.308Z,33.10
2018-03-25T21:51:17.962Z,31.05
2018-03-25T21:53:44.599Z,32.30
2018-03-25T21:56:11.252Z,28.42
2018-03-25T21:58:37.871Z,32.17
2018-03-25T22:01:04.618Z,29.10
2018-03-25T22:03:31.283Z,27.92
2018-03-25T22:05:57.905Z,30.67
2018-03-25T22:08:24.635Z,28.80
2018-03-25T22:10:51.284Z,29.92
2018-03-25T22:13:17.926Z,30.05
2018-03-25T22:15:44.651Z,29.40
2018-03-25T22:18:11.416Z,28.80
2018-03-25T22:20:38.129Z,28.38
2018-03-25T22:23:04.864Z,28.40
2018-03-25T22:25:31.517Z,27.20
2018-03-25T22:27:58.179Z,26.40
2018-03-25T22:30:24.893Z,27.02
2018-03-25T22:32:51.541Z,27.45
2018-03-25T22:35:18.180Z,26.05
2018-03-25T22:37:44.820Z,26.65
2018-03-25T22:40:11.448Z,25.42
2018-03-25T22:42:38.112Z,26.83
2018-03-25T22:45:04.824Z,25.83
2018-03-25T22:47:31.581Z,25.52
2018-03-25T22:49:58.210Z,23.48
2018-03-25T22:52:24.854Z,26.05
2018-03-25T22:54:51.596Z,24.10
2018-03-25T22:57:18.253Z,23.12
2018-03-25T22:59:44.899Z,27.00
2018-03-25T23:02:11.537Z,30.20
2018-03-25T23:04:38.248Z,34.35
2018-03-25T23:07:04.990Z,26.50
2018-03-25T23:09:31.638Z,28.10
2018-03-25T23:11:58.260Z,28.95
2018-03-25T23:14:25.005Z,25.50
2018-03-25T23:16:51.634Z,28.65
2018-03-25T23:19:18.277Z,30.12
2018-03-25T23:21:44.917Z,24.42
2018-03-25T23:24:11.556Z,26.17
2018-03-25T23:26:38.180Z,27.10
2018-03-25T23:29:04.849Z,26.65
2018-03-25T23:31:31.586Z,26.45
2018-03-25T23:33:58.332Z,24.10
2018-03-25T23:36:25.068Z,27.73
2018-03-25T23:38:51.708Z,30.65
2018-03-25T23:41:18.342Z,30.08
2018-03-25T23:43:45.093Z,29.80
2018-03-25T23:46:11.729Z,30.50
2018-03-25T23:48:38.364Z,30.90
2018-03-25T23:51:05.003Z,28.45
2018-03-25T23:53:31.638Z,30.35
2018-03-25T23:55:58.289Z,31.35
2018-03-25T23:58:24.916Z,30.75
